sensor_id;sensor_type;location;lat;lon;timestamp;temperature;humidity
5136;DHT22;2586;48.710;9.202;2022-07-23T00:01:22;23.70;76.80
5136;DHT22;2586;48.710;9.202;2022-07-23T00:03:48;23.70;57.70
5136;DHT22;2586;48.710;9.202;2022-07-23T00:06:15;23.70;48.30
5136;DHT22;2586;48.710;9.202;2022-07-23T00:08:41;23.70;41.30
5136;DHT22;2586;48.710;9.202;2022-07-23T00:11:07;23.80;30.60
5136;DHT22;2586;48.710;9.202;2022-07-23T00:13:33;23.80;12.20
5136;DHT22;2586;48.710;9.202;2022-07-23T00:15:58;23.80;9.60
5136;DHT22;2586;48.710;9.202;2022-07-23T00:18:24;23.90;5.60
5136;DHT22;2586;48.710;9.202;2022-07-23T00:20:50;23.90;1.00
5136;DHT22;2586;48.710;9.202;2022-07-23T00:23:16;23.90;1.00
5136;DHT22;2586;48.710;9.202;2022-07-23T00:25:42;23.90;1.00
5136;DHT22;2586;48.710;9.202;2022-07-23T00:28:08;23.90;1.00
5136;DHT22;2586;48.710;9.202;2022-07-23T00:30:33;23.90;1.00
5136;DHT22;2586;48.710;9.202;2022-07-23T00:33:02;23.90;1.00
5136;DHT22;2586;48.710;9.202;2022-07-23T00:35:30;23.80;1.00
5136;DHT22;2586;48.710;9.202;2022-07-23T00:37:57;23.70;1.00
5136;DHT22;2586;48.710;9.202;2022-07-23T00:40:23;23.60;1.10
5136;DHT22;2586;48.710;9.202;2022-07-23T00:42:49;23.50;4.60
5136;DHT22;2586;48.710;9.202;2022-07-23T00:45:15;23.40;6.50
5136;DHT22;2586;48.710;9.202;2022-07-23T00:47:41;23.40;14.40
5136;DHT22;2586;48.710;9.202;2022-07-23T00:50:08;23.30;14.10
5136;DHT22;2586;48.710;9.202;2022-07-23T00:52:34;23.30;9.60
5136;DHT22;2586;48.710;9.202;2022-07-23T00:55:00;23.30;11.60
5136;DHT22;2586;48.710;9.202;2022-07-23T00:57:26;23.30;10.60
5136;DHT22;2586;48.710;9.202;2022-07-23T00:59:52;23.30;10.80
5136;DHT22;2586;48.710;9.202;2022-07-23T01:02:17;23.20;10.90
5136;DHT22;2586;48.710;9.202;2022-07-23T01:04:43;23.10;10.70
5136;DHT22;2586;48.710;9.202;2022-07-23T01:07:09;23.10;13.60
5136;DHT22;2586;48.710;9.202;2022-07-23T01:09:35;23.10;15.30
5136;DHT22;2586;48.710;9.202;2022-07-23T01:12:02;23.00;16.90
5136;DHT22;2586;48.710;9.202;2022-07-23T01:14:28;23.00;16.80
5136;DHT22;2586;48.710;9.202;2022-07-23T01:16:53;23.00;26.20
5136;DHT22;2586;48.710;9.202;2022-07-23T01:19:20;22.90;19.30
5136;DHT22;2586;48.710;9.202;2022-07-23T01:21:50;23.00;21.90
5136;DHT22;2586;48.710;9.202;2022-07-23T01:24:17;22.90;22.20
5136;DHT22;2586;48.710;9.202;2022-07-23T01:26:47;22.90;13.90
5136;DHT22;2586;48.710;9.202;2022-07-23T01:29:13;22.90;15.40
5136;DHT22;2586;48.710;9.202;2022-07-23T01:31:39;22.90;20.40
5136;DHT22;2586;48.710;9.202;2022-07-23T01:34:05;22.90;21.10
5136;DHT22;2586;48.710;9.202;2022-07-23T01:36:33;22.80;26.00
5136;DHT22;2586;48.710;9.202;2022-07-23T01:38:59;22.80;27.00
5136;DHT22;2586;48.710;9.202;2022-07-23T01:41:24;22.80;37.00
5136;DHT22;2586;48.710;9.202;2022-07-23T01:43:50;22.80;39.50
5136;DHT22;2586;48.710;9.202;2022-07-23T01:46:16;22.70;52.20
5136;DHT22;2586;48.710;9.202;2022-07-23T01:48:42;22.60;96.80
5136;DHT22;2586;48.710;9.202;2022-07-23T01:51:08;22.50;99.90
5136;DHT22;2586;48.710;9.202;2022-07-23T01:53:34;22.50;99.90
5136;DHT22;2586;48.710;9.202;2022-07-23T01:56:00;22.40;99.90
5136;DHT22;2586;48.710;9.202;2022-07-23T01:58:26;22.40;99.90
5136;DHT22;2586;48.710;9.202;2022-07-23T02:00:52;22.30;99.90
5136;DHT22;2586;48.710;9.202;2022-07-23T02:03:18;22.30;99.90
5136;DHT22;2586;48.710;9.202;2022-07-23T02:05:44;22.20;99.90
5136;DHT22;2586;48.710;9.202;2022-07-23T02:08:09;22.10;99.90
5136;DHT22;2586;48.710;9.202;2022-07-23T02:10:35;22.10;99.90
5136;DHT22;2586;48.710;9.202;2022-07-23T02:13:00;22.10;99.90
5136;DHT22;2586;48.710;9.202;2022-07-23T02:15:26;22.10;99.90
5136;DHT22;2586;48.710;9.202;2022-07-23T02:17:52;22.10;99.90
5136;DHT22;2586;48.710;9.202;2022-07-23T02:20:17;22.00;99.90
5136;DHT22;2586;48.710;9.202;2022-07-23T02:22:44;21.90;99.90
5136;DHT22;2586;48.710;9.202;2022-07-23T02:25:09;21.90;99.90
5136;DHT22;2586;48.710;9.202;2022-07-23T02:27:35;21.90;99.90
5136;DHT22;2586;48.710;9.202;2022-07-23T02:30:01;21.90;99.90
5136;DHT22;2586;48.710;9.202;2022-07-23T02:32:27;21.90;99.90
5136;DHT22;2586;48.710;9.202;2022-07-23T02:34:53;21.90;99.90
5136;DHT22;2586;48.710;9.202;2022-07-23T02:37:18;21.80;99.90
5136;DHT22;2586;48.710;9.202;2022-07-23T02:39:44;21.80;1.00
5136;DHT22;2586;48.710;9.202;2022-07-23T02:42:10;21.80;1.00
5136;DHT22;2586;48.710;9.202;2022-07-23T02:44:35;21.80;99.90
5136;DHT22;2586;48.710;9.202;2022-07-23T02:47:01;21.80;99.90
5136;DHT22;2586;48.710;9.202;2022-07-23T02:49:26;21.80;99.90
5136;DHT22;2586;48.710;9.202;2022-07-23T02:51:52;21.70;99.90
5136;DHT22;2586;48.710;9.202;2022-07-23T02:54:18;21.80;99.90
5136;DHT22;2586;48.710;9.202;2022-07-23T02:56:44;21.80;99.90
5136;DHT22;2586;48.710;9.202;2022-07-23T02:59:09;21.70;1.00
5136;DHT22;2586;48.710;9.202;2022-07-23T03:01:36;21.70;1.00
5136;DHT22;2586;48.710;9.202;2022-07-23T03:04:01;21.70;99.90
5136;DHT22;2586;48.710;9.202;2022-07-23T03:06:27;21.70;1.00
5136;DHT22;2586;48.710;9.202;2022-07-23T03:08:52;21.80;99.90
5136;DHT22;2586;48.710;9.202;2022-07-23T03:11:18;21.80;99.90
5136;DHT22;2586;48.710;9.202;2022-07-23T03:13:44;21.70;99.90
5136;DHT22;2586;48.710;9.202;2022-07-23T03:16:09;21.70;99.90
5136;DHT22;2586;48.710;9.202;2022-07-23T03:18:36;21.70;99.90
5136;DHT22;2586;48.710;9.202;2022-07-23T03:21:02;21.60;1.00
5136;DHT22;2586;48.710;9.202;2022-07-23T03:23:28;21.50;1.00
5136;DHT22;2586;48.710;9.202;2022-07-23T03:25:54;21.50;1.00
5136;DHT22;2586;48.710;9.202;2022-07-23T03:28:19;21.50;1.00
5136;DHT22;2586;48.710;9.202;2022-07-23T03:30:46;21.40;1.00
5136;DHT22;2586;48.710;9.202;2022-07-23T03:33:16;21.40;1.00
5136;DHT22;2586;48.710;9.202;2022-07-23T03:35:46;21.40;1.00
5136;DHT22;2586;48.710;9.202;2022-07-23T03:38:12;21.40;1.00
5136;DHT22;2586;48.710;9.202;2022-07-23T03:40:38;21.40;1.00
5136;DHT22;2586;48.710;9.202;2022-07-23T03:43:04;21.30;1.00
5136;DHT22;2586;48.710;9.202;2022-07-23T03:45:30;21.20;1.00
5136;DHT22;2586;48.710;9.202;2022-07-23T03:47:56;21.20;1.00
5136;DHT22;2586;48.710;9.202;2022-07-23T03:50:21;21.20;1.00
5136;DHT22;2586;48.710;9.202;2022-07-23T03:52:47;21.10;1.00
5136;DHT22;2586;48.710;9.202;2022-07-23T03:55:13;21.20;1.00
5136;DHT22;2586;48.710;9.202;2022-07-23T03:57:39;21.10;1.00
5136;DHT22;2586;48.710;9.202;2022-07-23T04:00:06;21.10;1.00
5136;DHT22;2586;48.710;9.202;2022-07-23T04:02:33;21.00;99.90
5136;DHT22;2586;48.710;9.202;2022-07-23T04:04:59;20.90;99.90
5136;DHT22;2586;48.710;9.202;2022-07-23T04:07:25;20.90;99.90
5136;DHT22;2586;48.710;9.202;2022-07-23T04:09:51;20.90;99.90
5136;DHT22;2586;48.710;9.202;2022-07-23T04:12:17;20.90;99.90
5136;DHT22;2586;48.710;9.202;2022-07-23T04:14:43;21.00;1.00
5136;DHT22;2586;48.710;9.202;2022-07-23T04:17:08;21.10;1.00
5136;DHT22;2586;48.710;9.202;2022-07-23T04:19:34;21.10;1.00
5136;DHT22;2586;48.710;9.202;2022-07-23T04:22:08;21.20;34.50
5136;DHT22;2586;48.710;9.202;2022-07-23T04:24:33;21.20;3.40
5136;DHT22;2586;48.710;9.202;2022-07-23T04:26:59;21.20;1.00
5136;DHT22;2586;48.710;9.202;2022-07-23T04:29:25;21.30;1.00
5136;DHT22;2586;48.710;9.202;2022-07-23T04:31:51;21.30;1.00
5136;DHT22;2586;48.710;9.202;2022-07-23T04:34:17;21.30;1.00
5136;DHT22;2586;48.710;9.202;2022-07-23T04:36:42;21.30;1.00
5136;DHT22;2586;48.710;9.202;2022-07-23T04:39:08;21.30;1.00
5136;DHT22;2586;48.710;9.202;2022-07-23T04:41:34;21.30;1.00
5136;DHT22;2586;48.710;9.202;2022-07-23T04:44:00;21.30;1.00
5136;DHT22;2586;48.710;9.202;2022-07-23T04:46:26;21.30;1.00
5136;DHT22;2586;48.710;9.202;2022-07-23T04:48:52;21.40;33.50
5136;DHT22;2586;48.710;9.202;2022-07-23T04:51:17;21.40;1.00
5136;DHT22;2586;48.710;9.202;2022-07-23T04:53:43;21.40;1.00
5136;DHT22;2586;48.710;9.202;2022-07-23T04:56:09;21.40;1.00
5136;DHT22;2586;48.710;9.202;2022-07-23T04:58:34;21.40;1.00
5136;DHT22;2586;48.710;9.202;2022-07-23T05:01:00;21.50;1.00
5136;DHT22;2586;48.710;9.202;2022-07-23T05:03:25;21.60;1.00
5136;DHT22;2586;48.710;9.202;2022-07-23T05:05:51;21.70;1.00
5136;DHT22;2586;48.710;9.202;2022-07-23T05:08:17;21.80;1.00
5136;DHT22;2586;48.710;9.202;2022-07-23T05:10:42;21.80;1.00
5136;DHT22;2586;48.710;9.202;2022-07-23T05:13:08;22.00;1.00
5136;DHT22;2586;48.710;9.202;2022-07-23T05:15:34;22.00;1.00
5136;DHT22;2586;48.710;9.202;2022-07-23T05:17:59;22.10;1.00
5136;DHT22;2586;48.710;9.202;2022-07-23T05:20:25;22.10;1.00
5136;DHT22;2586;48.710;9.202;2022-07-23T05:22:51;22.10;1.00
5136;DHT22;2586;48.710;9.202;2022-07-23T05:25:17;22.20;1.00
5136;DHT22;2586;48.710;9.202;2022-07-23T05:27:43;22.20;1.00
5136;DHT22;2586;48.710;9.202;2022-07-23T05:30:09;22.20;1.00
5136;DHT22;2586;48.710;9.202;2022-07-23T05:32:35;22.30;1.00
5136;DHT22;2586;48.710;9.202;2022-07-23T05:35:02;22.30;1.00
5136;DHT22;2586;48.710;9.202;2022-07-23T05:37:28;22.40;1.00
5136;DHT22;2586;48.710;9.202;2022-07-23T05:39:54;22.40;1.00
5136;DHT22;2586;48.710;9.202;2022-07-23T05:42:19;22.40;1.00
5136;DHT22;2586;48.710;9.202;2022-07-23T05:44:45;22.40;53.60
5136;DHT22;2586;48.710;9.202;2022-07-23T05:47:10;22.50;1.00
5136;DHT22;2586;48.710;9.202;2022-07-23T05:49:37;22.50;99.90
5136;DHT22;2586;48.710;9.202;2022-07-23T05:52:04;22.60;1.00
5136;DHT22;2586;48.710;9.202;2022-07-23T05:54:30;22.60;47.50
5136;DHT22;2586;48.710;9.202;2022-07-23T05:56:56;22.60;1.00
5136;DHT22;2586;48.710;9.202;2022-07-23T05:59:21;22.60;99.90
5136;DHT22;2586;48.710;9.202;2022-07-23T06:01:47;22.60;99.90
5136;DHT22;2586;48.710;9.202;2022-07-23T06:04:12;22.70;99.90
5136;DHT22;2586;48.710;9.202;2022-07-23T06:06:38;22.60;1.00
5136;DHT22;2586;48.710;9.202;2022-07-23T06:09:04;22.60;1.00
5136;DHT22;2586;48.710;9.202;2022-07-23T06:11:29;22.60;1.00
5136;DHT22;2586;48.710;9.202;2022-07-23T06:13:55;22.80;1.00
5136;DHT22;2586;48.710;9.202;2022-07-23T06:16:20;22.90;99.90
5136;DHT22;2586;48.710;9.202;2022-07-23T06:18:46;23.00;99.90
5136;DHT22;2586;48.710;9.202;2022-07-23T06:21:12;23.10;99.90
5136;DHT22;2586;48.710;9.202;2022-07-23T06:23:37;23.20;99.90
5136;DHT22;2586;48.710;9.202;2022-07-23T06:26:03;23.20;99.90
5136;DHT22;2586;48.710;9.202;2022-07-23T06:28:28;23.20;1.00
5136;DHT22;2586;48.710;9.202;2022-07-23T06:30:54;23.20;1.00
5136;DHT22;2586;48.710;9.202;2022-07-23T06:33:20;23.30;99.90
5136;DHT22;2586;48.710;9.202;2022-07-23T06:35:45;23.30;99.90
5136;DHT22;2586;48.710;9.202;2022-07-23T06:38:11;23.20;99.90
5136;DHT22;2586;48.710;9.202;2022-07-23T06:40:36;23.20;99.90
5136;DHT22;2586;48.710;9.202;2022-07-23T06:43:02;23.20;1.00
5136;DHT22;2586;48.710;9.202;2022-07-23T06:45:28;23.30;99.90
5136;DHT22;2586;48.710;9.202;2022-07-23T06:47:53;23.50;99.90
5136;DHT22;2586;48.710;9.202;2022-07-23T06:50:19;23.60;99.90
5136;DHT22;2586;48.710;9.202;2022-07-23T06:52:45;23.60;99.90
5136;DHT22;2586;48.710;9.202;2022-07-23T06:55:10;23.70;99.90
5136;DHT22;2586;48.710;9.202;2022-07-23T06:57:36;23.90;99.90
5136;DHT22;2586;48.710;9.202;2022-07-23T07:00:02;23.90;99.90
5136;DHT22;2586;48.710;9.202;2022-07-23T07:02:28;23.90;99.90
5136;DHT22;2586;48.710;9.202;2022-07-23T07:04:54;23.90;99.90
5136;DHT22;2586;48.710;9.202;2022-07-23T07:07:21;23.80;99.90
5136;DHT22;2586;48.710;9.202;2022-07-23T07:09:47;23.90;99.90
5136;DHT22;2586;48.710;9.202;2022-07-23T07:12:12;23.90;99.90
5136;DHT22;2586;48.710;9.202;2022-07-23T07:14:38;23.80;99.90
5136;DHT22;2586;48.710;9.202;2022-07-23T07:17:04;23.80;99.90
5136;DHT22;2586;48.710;9.202;2022-07-23T07:19:29;23.80;99.90
5136;DHT22;2586;48.710;9.202;2022-07-23T07:21:56;23.70;99.90
5136;DHT22;2586;48.710;9.202;2022-07-23T07:24:22;23.70;99.90
5136;DHT22;2586;48.710;9.202;2022-07-23T07:26:48;23.70;99.90
5136;DHT22;2586;48.710;9.202;2022-07-23T07:29:15;23.70;99.90
5136;DHT22;2586;48.710;9.202;2022-07-23T07:31:41;23.90;99.90
5136;DHT22;2586;48.710;9.202;2022-07-23T07:34:06;24.00;99.90
5136;DHT22;2586;48.710;9.202;2022-07-23T07:36:32;23.90;99.90
5136;DHT22;2586;48.710;9.202;2022-07-23T07:38:58;23.80;99.90
5136;DHT22;2586;48.710;9.202;2022-07-23T07:41:23;23.90;99.90
5136;DHT22;2586;48.710;9.202;2022-07-23T07:43:51;24.10;99.90
5136;DHT22;2586;48.710;9.202;2022-07-23T07:46:17;24.20;99.90
5136;DHT22;2586;48.710;9.202;2022-07-23T07:48:42;24.30;99.90
5136;DHT22;2586;48.710;9.202;2022-07-23T07:51:08;24.40;90.30
5136;DHT22;2586;48.710;9.202;2022-07-23T07:53:34;24.70;84.30
5136;DHT22;2586;48.710;9.202;2022-07-23T07:55:59;25.00;51.20
5136;DHT22;2586;48.710;9.202;2022-07-23T07:58:25;25.10;58.00
5136;DHT22;2586;48.710;9.202;2022-07-23T08:00:50;25.30;45.40
5136;DHT22;2586;48.710;9.202;2022-07-23T08:03:17;25.40;55.50
5136;DHT22;2586;48.710;9.202;2022-07-23T08:05:43;25.30;25.30
5136;DHT22;2586;48.710;9.202;2022-07-23T08:08:08;25.60;37.40
5136;DHT22;2586;48.710;9.202;2022-07-23T08:10:40;25.70;22.20
5136;DHT22;2586;48.710;9.202;2022-07-23T08:13:06;25.60;29.40
5136;DHT22;2586;48.710;9.202;2022-07-23T08:15:32;25.60;36.90
5136;DHT22;2586;48.710;9.202;2022-07-23T08:17:58;25.60;37.30
5136;DHT22;2586;48.710;9.202;2022-07-23T08:20:24;25.70;53.00
5136;DHT22;2586;48.710;9.202;2022-07-23T08:22:53;25.60;32.90
5136;DHT22;2586;48.710;9.202;2022-07-23T08:25:40;25.70;38.10
5136;DHT22;2586;48.710;9.202;2022-07-23T08:28:09;25.70;32.90
5136;DHT22;2586;48.710;9.202;2022-07-23T08:30:36;25.60;31.30
5136;DHT22;2586;48.710;9.202;2022-07-23T08:33:08;25.70;28.20
5136;DHT22;2586;48.710;9.202;2022-07-23T08:35:41;25.60;23.30
5136;DHT22;2586;48.710;9.202;2022-07-23T08:38:09;25.60;24.40
5136;DHT22;2586;48.710;9.202;2022-07-23T08:40:44;25.80;18.90
5136;DHT22;2586;48.710;9.202;2022-07-23T08:43:13;25.60;17.60
5136;DHT22;2586;48.710;9.202;2022-07-23T08:45:44;26.00;20.70
5136;DHT22;2586;48.710;9.202;2022-07-23T08:48:13;26.40;3.00
5136;DHT22;2586;48.710;9.202;2022-07-23T08:50:42;26.40;1.00
5136;DHT22;2586;48.710;9.202;2022-07-23T08:53:08;26.50;1.00
5136;DHT22;2586;48.710;9.202;2022-07-23T08:55:34;26.60;1.00
5136;DHT22;2586;48.710;9.202;2022-07-23T08:58:00;26.70;4.90
5136;DHT22;2586;48.710;9.202;2022-07-23T09:00:26;26.60;1.00
5136;DHT22;2586;48.710;9.202;2022-07-23T09:02:52;26.70;1.00
5136;DHT22;2586;48.710;9.202;2022-07-23T09:05:18;26.80;1.00
5136;DHT22;2586;48.710;9.202;2022-07-23T09:15:53;27.40;1.00
5136;DHT22;2586;48.710;9.202;2022-07-23T09:18:18;27.10;1.00
5136;DHT22;2586;48.710;9.202;2022-07-23T09:20:45;26.30;1.00
5136;DHT22;2586;48.710;9.202;2022-07-23T09:23:10;26.40;1.00
5136;DHT22;2586;48.710;9.202;2022-07-23T09:25:36;26.60;1.00
5136;DHT22;2586;48.710;9.202;2022-07-23T09:28:02;27.20;1.00
5136;DHT22;2586;48.710;9.202;2022-07-23T09:30:31;27.00;1.00
5136;DHT22;2586;48.710;9.202;2022-07-23T09:33:08;27.30;1.00
5136;DHT22;2586;48.710;9.202;2022-07-23T09:38:09;27.80;1.00
5136;DHT22;2586;48.710;9.202;2022-07-23T09:40:35;27.80;1.00
5136;DHT22;2586;48.710;9.202;2022-07-23T09:43:01;27.70;1.00
5136;DHT22;2586;48.710;9.202;2022-07-23T09:45:26;27.80;1.00
5136;DHT22;2586;48.710;9.202;2022-07-23T09:48:13;28.20;1.00
5136;DHT22;2586;48.710;9.202;2022-07-23T09:50:41;28.70;1.00
5136;DHT22;2586;48.710;9.202;2022-07-23T09:53:07;28.60;1.00
5136;DHT22;2586;48.710;9.202;2022-07-23T09:55:35;28.60;1.00
5136;DHT22;2586;48.710;9.202;2022-07-23T09:58:05;28.80;1.00
5136;DHT22;2586;48.710;9.202;2022-07-23T10:00:33;29.10;1.00
5136;DHT22;2586;48.710;9.202;2022-07-23T10:02:59;29.60;1.00
5136;DHT22;2586;48.710;9.202;2022-07-23T10:05:26;30.10;1.00
5136;DHT22;2586;48.710;9.202;2022-07-23T10:07:54;30.30;1.00
5136;DHT22;2586;48.710;9.202;2022-07-23T10:10:21;30.70;1.00
5136;DHT22;2586;48.710;9.202;2022-07-23T10:12:47;30.60;1.00
5136;DHT22;2586;48.710;9.202;2022-07-23T10:15:16;30.20;1.00
5136;DHT22;2586;48.710;9.202;2022-07-23T10:17:42;30.20;1.00
5136;DHT22;2586;48.710;9.202;2022-07-23T10:20:08;30.10;1.00
5136;DHT22;2586;48.710;9.202;2022-07-23T10:22:37;30.00;1.00
5136;DHT22;2586;48.710;9.202;2022-07-23T10:25:08;30.10;1.00
5136;DHT22;2586;48.710;9.202;2022-07-23T10:33:52;30.70;1.00
5136;DHT22;2586;48.710;9.202;2022-07-23T10:36:22;30.50;1.00
5136;DHT22;2586;48.710;9.202;2022-07-23T10:39:03;30.20;1.00
5136;DHT22;2586;48.710;9.202;2022-07-23T10:41:33;29.90;1.00
5136;DHT22;2586;48.710;9.202;2022-07-23T10:44:18;30.20;1.00
5136;DHT22;2586;48.710;9.202;2022-07-23T10:49:40;29.60;1.00
5136;DHT22;2586;48.710;9.202;2022-07-23T10:52:32;29.20;1.00
5136;DHT22;2586;48.710;9.202;2022-07-23T10:57:48;28.50;1.00
5136;DHT22;2586;48.710;9.202;2022-07-23T11:00:15;28.80;1.00
5136;DHT22;2586;48.710;9.202;2022-07-23T11:02:45;29.50;1.00
5136;DHT22;2586;48.710;9.202;2022-07-23T11:05:15;29.80;1.00
5136;DHT22;2586;48.710;9.202;2022-07-23T11:13:28;29.00;1.00
5136;DHT22;2586;48.710;9.202;2022-07-23T11:36:58;30.20;1.00
5136;DHT22;2586;48.710;9.202;2022-07-23T11:39:26;30.80;1.00
5136;DHT22;2586;48.710;9.202;2022-07-23T11:41:52;30.40;1.00
5136;DHT22;2586;48.710;9.202;2022-07-23T11:44:46;29.70;1.00
5136;DHT22;2586;48.710;9.202;2022-07-23T11:47:12;30.00;1.00
5136;DHT22;2586;48.710;9.202;2022-07-23T11:49:38;30.50;1.00
5136;DHT22;2586;48.710;9.202;2022-07-23T11:54:34;31.80;1.00
5136;DHT22;2586;48.710;9.202;2022-07-23T11:57:01;32.20;1.00
5136;DHT22;2586;48.710;9.202;2022-07-23T11:59:30;32.70;1.00
5136;DHT22;2586;48.710;9.202;2022-07-23T12:02:00;32.90;1.00
5136;DHT22;2586;48.710;9.202;2022-07-23T12:04:44;32.20;1.00
5136;DHT22;2586;48.710;9.202;2022-07-23T12:07:30;31.60;1.00
5136;DHT22;2586;48.710;9.202;2022-07-23T12:10:01;32.00;1.00
5136;DHT22;2586;48.710;9.202;2022-07-23T12:12:35;32.30;1.00
5136;DHT22;2586;48.710;9.202;2022-07-23T12:15:02;32.80;1.00
5136;DHT22;2586;48.710;9.202;2022-07-23T12:17:33;33.20;1.00
5136;DHT22;2586;48.710;9.202;2022-07-23T12:20:00;32.70;1.00
5136;DHT22;2586;48.710;9.202;2022-07-23T12:22:37;32.40;1.00
5136;DHT22;2586;48.710;9.202;2022-07-23T12:25:06;32.00;1.00
5136;DHT22;2586;48.710;9.202;2022-07-23T12:27:33;31.40;1.00
5136;DHT22;2586;48.710;9.202;2022-07-23T12:30:14;31.30;1.00
5136;DHT22;2586;48.710;9.202;2022-07-23T12:32:43;31.70;1.00
5136;DHT22;2586;48.710;9.202;2022-07-23T12:35:09;32.40;1.00
5136;DHT22;2586;48.710;9.202;2022-07-23T12:37:37;32.70;1.00
5136;DHT22;2586;48.710;9.202;2022-07-23T12:40:23;32.90;1.00
5136;DHT22;2586;48.710;9.202;2022-07-23T12:43:02;33.10;1.00
5136;DHT22;2586;48.710;9.202;2022-07-23T12:48:32;33.00;1.00
5136;DHT22;2586;48.710;9.202;2022-07-23T12:51:19;33.30;1.00
5136;DHT22;2586;48.710;9.202;2022-07-23T12:53:48;32.90;1.00
5136;DHT22;2586;48.710;9.202;2022-07-23T12:56:16;32.60;1.00
5136;DHT22;2586;48.710;9.202;2022-07-23T12:58:58;32.60;1.00
5136;DHT22;2586;48.710;9.202;2022-07-23T13:01:28;33.00;1.00
5136;DHT22;2586;48.710;9.202;2022-07-23T13:04:15;33.40;1.00
5136;DHT22;2586;48.710;9.202;2022-07-23T13:06:54;33.50;1.00
5136;DHT22;2586;48.710;9.202;2022-07-23T13:09:23;33.50;1.00
5136;DHT22;2586;48.710;9.202;2022-07-23T13:11:51;32.90;1.00
5136;DHT22;2586;48.710;9.202;2022-07-23T13:14:18;32.50;1.00
5136;DHT22;2586;48.710;9.202;2022-07-23T13:16:48;32.80;1.00
5136;DHT22;2586;48.710;9.202;2022-07-23T13:19:14;33.20;1.00
5136;DHT22;2586;48.710;9.202;2022-07-23T13:21:40;33.50;1.00
5136;DHT22;2586;48.710;9.202;2022-07-23T13:24:08;33.70;1.00
5136;DHT22;2586;48.710;9.202;2022-07-23T13:26:33;33.20;1.00
5136;DHT22;2586;48.710;9.202;2022-07-23T13:28:59;32.80;1.00
5136;DHT22;2586;48.710;9.202;2022-07-23T13:31:25;33.30;1.00
5136;DHT22;2586;48.710;9.202;2022-07-23T13:33:50;33.60;1.00
5136;DHT22;2586;48.710;9.202;2022-07-23T13:36:16;33.80;1.00
5136;DHT22;2586;48.710;9.202;2022-07-23T13:38:42;34.20;1.00
5136;DHT22;2586;48.710;9.202;2022-07-23T13:41:07;34.50;1.00
5136;DHT22;2586;48.710;9.202;2022-07-23T13:43:34;33.90;1.00
5136;DHT22;2586;48.710;9.202;2022-07-23T13:46:00;34.00;1.00
5136;DHT22;2586;48.710;9.202;2022-07-23T13:48:25;33.30;1.00
5136;DHT22;2586;48.710;9.202;2022-07-23T13:50:51;32.90;1.00
5136;DHT22;2586;48.710;9.202;2022-07-23T13:53:19;33.50;1.00
5136;DHT22;2586;48.710;9.202;2022-07-23T13:55:45;33.80;1.00
5136;DHT22;2586;48.710;9.202;2022-07-23T13:58:11;34.10;1.00
5136;DHT22;2586;48.710;9.202;2022-07-23T14:00:43;34.40;1.00
5136;DHT22;2586;48.710;9.202;2022-07-23T14:03:09;34.70;1.00
5136;DHT22;2586;48.710;9.202;2022-07-23T14:05:35;34.00;1.00
5136;DHT22;2586;48.710;9.202;2022-07-23T14:08:01;32.90;1.00
5136;DHT22;2586;48.710;9.202;2022-07-23T14:10:27;32.10;1.00
5136;DHT22;2586;48.710;9.202;2022-07-23T14:12:53;31.60;1.00
5136;DHT22;2586;48.710;9.202;2022-07-23T14:15:22;31.30;1.00
5136;DHT22;2586;48.710;9.202;2022-07-23T14:17:48;31.20;1.00
5136;DHT22;2586;48.710;9.202;2022-07-23T14:20:14;30.70;1.00
5136;DHT22;2586;48.710;9.202;2022-07-23T14:22:40;30.50;1.00
5136;DHT22;2586;48.710;9.202;2022-07-23T14:25:06;30.60;1.00
5136;DHT22;2586;48.710;9.202;2022-07-23T14:27:33;30.60;1.00
5136;DHT22;2586;48.710;9.202;2022-07-23T14:29:59;30.60;1.00
5136;DHT22;2586;48.710;9.202;2022-07-23T14:32:25;30.40;1.00
5136;DHT22;2586;48.710;9.202;2022-07-23T14:34:51;30.10;1.00
5136;DHT22;2586;48.710;9.202;2022-07-23T14:37:17;30.40;1.00
5136;DHT22;2586;48.710;9.202;2022-07-23T14:39:43;31.10;1.00
5136;DHT22;2586;48.710;9.202;2022-07-23T14:42:09;32.30;1.00
5136;DHT22;2586;48.710;9.202;2022-07-23T14:44:36;32.60;1.00
5136;DHT22;2586;48.710;9.202;2022-07-23T14:47:02;32.70;1.00
5136;DHT22;2586;48.710;9.202;2022-07-23T14:49:32;33.20;1.00
5136;DHT22;2586;48.710;9.202;2022-07-23T14:51:59;33.70;1.00
5136;DHT22;2586;48.710;9.202;2022-07-23T14:54:25;34.30;1.00
5136;DHT22;2586;48.710;9.202;2022-07-23T14:56:53;34.50;1.00
5136;DHT22;2586;48.710;9.202;2022-07-23T14:59:18;34.40;1.00
5136;DHT22;2586;48.710;9.202;2022-07-23T15:01:44;33.80;1.00
5136;DHT22;2586;48.710;9.202;2022-07-23T15:04:10;33.50;1.00
5136;DHT22;2586;48.710;9.202;2022-07-23T15:11:46;32.10;1.00
5136;DHT22;2586;48.710;9.202;2022-07-23T15:14:12;31.20;1.00
5136;DHT22;2586;48.710;9.202;2022-07-23T15:16:38;30.80;1.00
5136;DHT22;2586;48.710;9.202;2022-07-23T15:19:04;30.50;1.00
5136;DHT22;2586;48.710;9.202;2022-07-23T15:24:05;30.00;1.00
5136;DHT22;2586;48.710;9.202;2022-07-23T15:26:31;30.00;1.00
5136;DHT22;2586;48.710;9.202;2022-07-23T15:28:57;30.00;1.00
5136;DHT22;2586;48.710;9.202;2022-07-23T15:31:24;30.60;1.00
5136;DHT22;2586;48.710;9.202;2022-07-23T15:33:50;31.60;1.00
5136;DHT22;2586;48.710;9.202;2022-07-23T15:36:20;32.30;1.00
5136;DHT22;2586;48.710;9.202;2022-07-23T15:38:47;32.30;1.00
5136;DHT22;2586;48.710;9.202;2022-07-23T15:41:12;32.00;1.00
5136;DHT22;2586;48.710;9.202;2022-07-23T15:43:38;32.30;1.00
5136;DHT22;2586;48.710;9.202;2022-07-23T15:46:05;31.90;1.00
5136;DHT22;2586;48.710;9.202;2022-07-23T15:48:35;31.50;1.00
5136;DHT22;2586;48.710;9.202;2022-07-23T15:51:02;31.00;1.00
5136;DHT22;2586;48.710;9.202;2022-07-23T15:53:28;30.90;1.00
5136;DHT22;2586;48.710;9.202;2022-07-23T15:55:54;32.00;1.00
5136;DHT22;2586;48.710;9.202;2022-07-23T15:58:21;33.20;1.00
5136;DHT22;2586;48.710;9.202;2022-07-23T16:00:48;34.20;1.00
5136;DHT22;2586;48.710;9.202;2022-07-23T16:03:14;35.20;1.00
5136;DHT22;2586;48.710;9.202;2022-07-23T16:05:41;35.80;1.00
5136;DHT22;2586;48.710;9.202;2022-07-23T16:08:08;36.00;1.00
5136;DHT22;2586;48.710;9.202;2022-07-23T16:10:34;35.80;1.00
5136;DHT22;2586;48.710;9.202;2022-07-23T16:12:59;35.80;1.00
5136;DHT22;2586;48.710;9.202;2022-07-23T16:15:26;35.30;1.00
5136;DHT22;2586;48.710;9.202;2022-07-23T16:17:54;34.70;1.00
5136;DHT22;2586;48.710;9.202;2022-07-23T16:20:19;34.30;1.00
5136;DHT22;2586;48.710;9.202;2022-07-23T16:22:45;33.90;1.00
5136;DHT22;2586;48.710;9.202;2022-07-23T16:25:11;33.40;1.00
5136;DHT22;2586;48.710;9.202;2022-07-23T16:27:38;32.70;1.00
5136;DHT22;2586;48.710;9.202;2022-07-23T16:30:05;32.30;1.00
5136;DHT22;2586;48.710;9.202;2022-07-23T16:32:31;32.00;1.00
5136;DHT22;2586;48.710;9.202;2022-07-23T16:34:57;31.90;1.00
5136;DHT22;2586;48.710;9.202;2022-07-23T16:37:23;31.50;1.00
5136;DHT22;2586;48.710;9.202;2022-07-23T16:39:48;31.00;1.00
5136;DHT22;2586;48.710;9.202;2022-07-23T16:42:14;30.60;1.00
5136;DHT22;2586;48.710;9.202;2022-07-23T16:44:40;30.10;1.00
5136;DHT22;2586;48.710;9.202;2022-07-23T16:47:08;29.70;1.00
5136;DHT22;2586;48.710;9.202;2022-07-23T16:49:36;29.50;1.00
5136;DHT22;2586;48.710;9.202;2022-07-23T16:52:03;29.30;1.00
5136;DHT22;2586;48.710;9.202;2022-07-23T16:54:30;29.50;1.00
5136;DHT22;2586;48.710;9.202;2022-07-23T16:56:56;29.50;1.00
5136;DHT22;2586;48.710;9.202;2022-07-23T16:59:21;29.30;1.00
5136;DHT22;2586;48.710;9.202;2022-07-23T17:01:47;29.10;1.00
5136;DHT22;2586;48.710;9.202;2022-07-23T17:04:13;28.80;1.00
5136;DHT22;2586;48.710;9.202;2022-07-23T17:16:59;30.20;1.00
5136;DHT22;2586;48.710;9.202;2022-07-23T17:19:25;30.10;1.00
5136;DHT22;2586;48.710;9.202;2022-07-23T17:21:51;30.40;1.00
5136;DHT22;2586;48.710;9.202;2022-07-23T17:24:17;30.00;1.00